createdAt,value
2022-07-29T00:00:59.758Z,2.47
2022-07-29T00:03:26.388Z,2.27
2022-07-29T00:05:54.144Z,2.50
2022-07-29T00:08:20.967Z,2.43
2022-07-29T00:10:47.583Z,2.50
2022-07-29T00:13:14.148Z,2.60
2022-07-29T00:15:40.636Z,2.70
2022-07-29T00:18:07.195Z,2.97
2022-07-29T00:20:33.839Z,2.50
2022-07-29T00:23:00.333Z,2.60
2022-07-29T00:25:26.823Z,2.30
2022-07-29T00:27:53.301Z,2.17
2022-07-29T00:30:19.778Z,2.40
2022-07-29T00:32:46.280Z,2.43
2022-07-29T00:35:31.588Z,2.37
2022-07-29T00:38:00.137Z,2.70
2022-07-29T00:40:28.682Z,2.70
2022-07-29T00:42:55.234Z,3.00
2022-07-29T00:45:23.098Z,2.60
2022-07-29T00:47:49.879Z,2.50
2022-07-29T00:50:16.378Z,2.50
2022-07-29T00:52:43.338Z,2.60
2022-07-29T00:55:15.342Z,2.47
2022-07-29T00:57:42.768Z,3.20
2022-07-29T01:00:12.418Z,3.13
2022-07-29T01:02:39.103Z,3.80
2022-07-29T01:05:06.848Z,3.63
2022-07-29T01:07:35.371Z,3.60
2022-07-29T01:10:03.670Z,2.80
2022-07-29T01:12:33.877Z,2.57
2022-07-29T01:15:01.895Z,3.00
2022-07-29T01:17:53.427Z,3.10
2022-07-29T01:20:41.201Z,2.87
2022-07-29T01:23:07.659Z,3.10
2022-07-29T01:25:56.322Z,2.77
2022-07-29T01:28:46.537Z,2.80
2022-07-29T01:31:22.810Z,3.10
2022-07-29T01:33:59.205Z,2.80
2022-07-29T01:36:33.653Z,2.70
2022-07-29T01:39:06.550Z,3.30
2022-07-29T01:41:35.204Z,3.20
2022-07-29T01:44:18.708Z,2.80
2022-07-29T01:46:51.062Z,3.00
2022-07-29T01:49:29.298Z,2.87
2022-07-29T01:51:59.764Z,3.47
2022-07-29T01:54:29.438Z,3.60
2022-07-29T01:56:57.912Z,3.57
2022-07-29T01:59:24.735Z,4.03
2022-07-29T02:01:54.455Z,3.90
2022-07-29T02:04:29.202Z,3.50
2022-07-29T02:06:59.386Z,3.30
2022-07-29T02:09:26.411Z,3.60
2022-07-29T02:11:54.668Z,3.63
2022-07-29T02:14:22.736Z,3.83
2022-07-29T02:16:53.531Z,3.70
2022-07-29T02:19:22.573Z,3.83
2022-07-29T02:21:49.341Z,4.13
2022-07-29T02:24:18.790Z,3.80
2022-07-29T02:26:45.514Z,4.00
2022-07-29T02:29:13.038Z,3.00
2022-07-29T02:31:40.327Z,3.90
2022-07-29T02:34:08.345Z,3.73
2022-07-29T02:36:35.432Z,4.30
2022-07-29T02:39:03.758Z,4.00
2022-07-29T02:41:36.754Z,4.03
2022-07-29T02:44:07.301Z,3.53
2022-07-29T02:46:35.220Z,4.17
2022-07-29T02:49:20.552Z,4.20
2022-07-29T02:51:56.337Z,3.83
2022-07-29T02:54:37.811Z,4.37
2022-07-29T02:57:10.729Z,3.63
2022-07-29T02:59:37.906Z,4.10
2022-07-29T03:02:06.189Z,3.53
2022-07-29T03:04:33.586Z,3.60
2022-07-29T03:07:01.758Z,3.40
2022-07-29T03:09:29.066Z,4.37
2022-07-29T03:11:56.129Z,4.10
2022-07-29T03:14:24.002Z,3.90
2022-07-29T03:16:50.955Z,3.87
2022-07-29T03:19:18.754Z,3.87
2022-07-29T03:21:45.274Z,3.43
2022-07-29T03:24:28.864Z,3.60
2022-07-29T03:26:57.185Z,3.90
2022-07-29T03:29:23.814Z,3.53
2022-07-29T03:31:51.224Z,3.30
2022-07-29T03:34:18.135Z,3.97
2022-07-29T03:36:44.789Z,3.50
2022-07-29T03:39:13.278Z,3.37
2022-07-29T03:41:39.926Z,3.97
2022-07-29T03:44:07.932Z,3.70
2022-07-29T03:46:35.089Z,4.07
2022-07-29T03:49:02.408Z,3.53
2022-07-29T03:51:33.128Z,3.37
2022-07-29T03:54:03.816Z,3.97
2022-07-29T03:56:34.166Z,3.83
2022-07-29T03:59:02.938Z,3.50
2022-07-29T04:01:30.556Z,3.73
2022-07-29T04:03:57.614Z,3.80
2022-07-29T04:06:24.260Z,3.70
2022-07-29T04:08:50.880Z,3.90
2022-07-29T04:11:17.383Z,3.77
2022-07-29T04:13:43.849Z,3.50
2022-07-29T04:16:10.368Z,3.80
2022-07-29T04:18:36.880Z,3.70
2022-07-29T04:21:05.007Z,3.90
2022-07-29T04:23:34.503Z,3.63
2022-07-29T04:26:02.147Z,3.70
2022-07-29T04:28:29.100Z,3.97
2022-07-29T04:30:55.678Z,3.57
2022-07-29T04:33:22.211Z,3.63
2022-07-29T04:35:52.321Z,3.70
2022-07-29T04:38:19.122Z,3.30
2022-07-29T04:40:45.659Z,3.63
2022-07-29T04:43:14.343Z,3.53
2022-07-29T04:45:42.122Z,3.70
2022-07-29T04:48:08.676Z,3.17
2022-07-29T04:50:35.246Z,3.70
2022-07-29T04:53:01.732Z,3.80
2022-07-29T04:55:28.298Z,3.63
2022-07-29T04:57:54.762Z,3.70
2022-07-29T05:00:21.384Z,3.70
2022-07-29T05:02:58.666Z,3.50
2022-07-29T05:05:25.181Z,3.90
2022-07-29T05:07:51.686Z,3.97
2022-07-29T05:10:18.182Z,3.87
2022-07-29T05:12:44.670Z,3.33
2022-07-29T05:15:11.286Z,3.60
2022-07-29T05:17:38.260Z,3.43
2022-07-29T05:20:06.016Z,2.90
2022-07-29T05:22:32.530Z,3.20
2022-07-29T05:24:58.988Z,3.37
2022-07-29T05:27:25.463Z,3.50
2022-07-29T05:29:52.163Z,3.10
2022-07-29T05:32:18.658Z,3.10
2022-07-29T05:34:51.229Z,3.20
2022-07-29T05:37:20.070Z,3.20
2022-07-29T05:39:48.934Z,3.00
2022-07-29T05:42:16.889Z,3.30
2022-07-29T05:44:43.368Z,3.10
2022-07-29T05:47:09.897Z,3.47
2022-07-29T05:49:36.431Z,3.10
2022-07-29T05:52:03.128Z,2.80
2022-07-29T05:54:29.598Z,2.90
2022-07-29T05:56:56.083Z,2.80
2022-07-29T05:59:25.963Z,3.20
2022-07-29T06:01:54.930Z,3.10
2022-07-29T06:04:21.695Z,3.10
2022-07-29T06:06:48.218Z,3.27
2022-07-29T06:09:14.935Z,3.03
2022-07-29T06:11:41.637Z,3.50
2022-07-29T06:14:08.095Z,3.37
2022-07-29T06:16:34.609Z,3.03
2022-07-29T06:19:01.148Z,3.27
2022-07-29T06:21:27.625Z,2.97
2022-07-29T06:23:54.160Z,3.80
2022-07-29T06:26:28.473Z,3.60
2022-07-29T06:28:58.171Z,3.00
2022-07-29T06:31:24.755Z,3.20
2022-07-29T06:33:51.357Z,3.50
2022-07-29T06:36:21.193Z,3.33
2022-07-29T06:38:51.463Z,3.30
2022-07-29T06:41:19.078Z,2.90
2022-07-29T06:43:52.305Z,3.23
2022-07-29T06:46:21.873Z,3.30
2022-07-29T06:48:49.274Z,3.00
2022-07-29T06:51:17.292Z,3.20
2022-07-29T06:54:00.330Z,2.77
2022-07-29T06:56:29.424Z,3.37
2022-07-29T06:58:55.980Z,2.57
2022-07-29T07:01:22.625Z,2.70
2022-07-29T07:03:49.263Z,2.70
2022-07-29T07:06:15.909Z,2.70
2022-07-29T07:08:42.410Z,2.63
2022-07-29T07:11:09.589Z,2.77
2022-07-29T07:13:36.543Z,2.70
2022-07-29T07:16:03.952Z,2.77
2022-07-29T07:18:30.856Z,2.30
2022-07-29T07:20:59.062Z,2.87
2022-07-29T07:23:25.891Z,2.50
2022-07-29T07:25:52.483Z,2.60
2022-07-29T07:28:19.609Z,2.60
2022-07-29T07:30:52.041Z,2.60
2022-07-29T07:33:18.605Z,2.40
2022-07-29T07:35:45.351Z,2.53
2022-07-29T07:38:11.854Z,2.50
2022-07-29T07:40:38.441Z,2.60
2022-07-29T07:43:05.010Z,2.50
2022-07-29T07:45:33.623Z,2.70
2022-07-29T07:48:00.376Z,2.27
2022-07-29T07:50:27.114Z,2.77
2022-07-29T07:52:56.054Z,2.80
2022-07-29T07:55:22.601Z,2.60
2022-07-29T07:57:49.134Z,2.50
2022-07-29T08:00:17.100Z,2.23
2022-07-29T08:02:44.158Z,2.70
2022-07-29T08:05:12.589Z,2.70
2022-07-29T08:07:39.869Z,2.03
2022-07-29T08:10:06.884Z,2.47
2022-07-29T08:12:33.350Z,2.50
2022-07-29T08:14:59.901Z,2.77
2022-07-29T08:17:27.557Z,2.30
2022-07-29T08:19:54.067Z,2.70
2022-07-29T08:22:20.762Z,2.20
2022-07-29T08:24:53.418Z,2.50
2022-07-29T08:27:42.337Z,2.50
2022-07-29T08:30:08.555Z,2.40
2022-07-29T08:32:53.120Z,2.70
2022-07-29T08:35:21.765Z,2.23
2022-07-29T08:37:48.438Z,2.07
2022-07-29T08:40:15.412Z,2.43
2022-07-29T08:42:41.967Z,2.47
2022-07-29T08:45:09.028Z,2.67
2022-07-29T08:47:39.574Z,2.00
2022-07-29T08:50:07.670Z,2.40
2022-07-29T08:52:37.392Z,2.40
2022-07-29T08:55:06.386Z,2.30
2022-07-29T08:57:33.853Z,2.23
2022-07-29T09:00:07.925Z,2.20
2022-07-29T09:02:41.482Z,2.37
2022-07-29T09:05:08.775Z,2.63
2022-07-29T09:07:35.379Z,2.33
2022-07-29T09:10:02.641Z,2.47
2022-07-29T09:12:32.738Z,2.40
2022-07-29T09:15:01.376Z,2.50
2022-07-29T09:17:41.954Z,2.13
2022-07-29T09:20:14.000Z,2.20
2022-07-29T09:22:42.220Z,2.40
2022-07-29T09:25:09.124Z,2.37
2022-07-29T09:27:35.674Z,2.00
2022-07-29T09:30:06.374Z,2.03
2022-07-29T09:32:33.886Z,2.30
2022-07-29T09:35:21.333Z,2.13
2022-07-29T09:37:48.648Z,2.00
2022-07-29T09:40:17.622Z,1.90
2022-07-29T09:42:44.932Z,2.00
2022-07-29T09:45:12.349Z,2.20
2022-07-29T09:47:47.921Z,2.37
2022-07-29T09:50:14.711Z,2.10
2022-07-29T09:52:49.629Z,1.63
2022-07-29T09:55:18.391Z,2.00
2022-07-29T09:57:47.351Z,1.83
2022-07-29T10:00:19.015Z,2.57
2022-07-29T10:02:47.541Z,2.10
2022-07-29T10:05:22.916Z,2.07
2022-07-29T10:07:55.234Z,1.87
2022-07-29T10:10:29.982Z,1.87
2022-07-29T10:13:01.802Z,2.10
2022-07-29T10:15:38.082Z,2.13
2022-07-29T10:18:05.173Z,1.87
2022-07-29T10:20:31.919Z,2.20
2022-07-29T10:22:58.605Z,2.03
2022-07-29T10:25:26.586Z,2.10
2022-07-29T10:27:54.193Z,2.13
2022-07-29T10:30:22.099Z,2.03
2022-07-29T10:33:00.118Z,2.10
2022-07-29T10:35:50.912Z,2.10
2022-07-29T10:38:46.083Z,2.00
2022-07-29T10:42:03.598Z,2.00
2022-07-29T10:44:30.701Z,2.07
2022-07-29T10:46:57.501Z,2.30
2022-07-29T10:49:27.248Z,1.97
2022-07-29T10:52:08.337Z,2.40
2022-07-29T10:54:43.667Z,2.10
2022-07-29T10:57:13.979Z,1.90
2022-07-29T10:59:42.855Z,1.90
2022-07-29T11:02:41.893Z,1.90
2022-07-29T11:05:10.876Z,2.47
2022-07-29T11:07:45.533Z,2.00
2022-07-29T11:10:16.421Z,2.00
2022-07-29T11:12:42.946Z,2.17
2022-07-29T11:15:18.344Z,2.10
2022-07-29T11:17:54.431Z,1.97
2022-07-29T11:20:47.811Z,2.10
2022-07-29T11:23:36.536Z,1.90
2022-07-29T11:26:28.459Z,1.90
2022-07-29T11:29:14.444Z,1.90
2022-07-29T11:31:46.356Z,2.13
2022-07-29T11:34:22.588Z,2.33
2022-07-29T11:37:07.562Z,2.10
2022-07-29T11:39:36.596Z,2.10
2022-07-29T11:42:32.630Z,1.90
2022-07-29T11:45:44.629Z,2.20
2022-07-29T11:48:29.223Z,2.13
2022-07-29T11:50:58.531Z,1.80
2022-07-29T11:53:25.792Z,2.17
2022-07-29T11:55:58.308Z,1.60
2022-07-29T12:01:15.209Z,1.87
2022-07-29T12:03:43.725Z,2.50
2022-07-29T12:06:15.619Z,1.97
2022-07-29T12:07:03.883Z,1.90
2022-07-29T12:08:45.419Z,2.20
2022-07-29T12:11:20.570Z,2.03
2022-07-29T12:13:49.320Z,2.20
2022-07-29T12:16:16.202Z,1.80
2022-07-29T12:19:03.927Z,1.93
2022-07-29T12:21:52.286Z,1.87
2022-07-29T12:24:22.807Z,2.27
2022-07-29T12:26:57.998Z,1.90
2022-07-29T12:29:34.892Z,1.83
2022-07-29T12:32:03.300Z,2.10
2022-07-29T12:34:30.583Z,2.00
2022-07-29T12:36:57.148Z,1.97
2022-07-29T12:39:23.885Z,1.97
2022-07-29T12:41:50.473Z,2.00
2022-07-29T12:44:16.960Z,2.37
2022-07-29T12:46:43.571Z,2.10
2022-07-29T12:49:10.167Z,2.07
2022-07-29T12:51:41.503Z,2.03
2022-07-29T12:54:14.732Z,2.13
2022-07-29T12:56:45.308Z,1.97
2022-07-29T12:59:20.201Z,1.93
2022-07-29T13:01:50.619Z,2.03
2022-07-29T13:04:26.916Z,2.17
2022-07-29T13:07:09.145Z,2.10
2022-07-29T13:09:44.482Z,1.93
2022-07-29T13:12:13.135Z,2.20
2022-07-29T13:14:41.946Z,2.20
2022-07-29T13:17:12.440Z,2.07
2022-07-29T13:19:52.978Z,1.70
2022-07-29T13:22:23.895Z,1.97
2022-07-29T13:24:52.612Z,1.80
2022-07-29T13:27:20.767Z,2.17
2022-07-29T13:29:47.914Z,2.10
2022-07-29T13:32:14.778Z,2.00
2022-07-29T13:34:41.771Z,1.90
2022-07-29T13:37:08.853Z,2.30
2022-07-29T13:39:35.483Z,1.90
2022-07-29T13:42:02.158Z,1.60
2022-07-29T13:44:28.773Z,1.83
2022-07-29T13:46:55.398Z,1.97
2022-07-29T13:49:21.956Z,2.00
2022-07-29T13:51:48.591Z,2.07
2022-07-29T13:54:15.060Z,2.07
2022-07-29T13:56:41.583Z,2.00
2022-07-29T13:59:08.756Z,2.10
2022-07-29T14:01:36.300Z,1.90
2022-07-29T14:04:03.827Z,2.10
2022-07-29T14:06:30.367Z,1.77
2022-07-29T14:08:56.921Z,2.20
2022-07-29T14:11:23.492Z,2.10
2022-07-29T14:13:50.001Z,2.10
2022-07-29T14:16:16.624Z,2.10
2022-07-29T14:18:43.574Z,2.37
2022-07-29T14:21:10.045Z,2.13
2022-07-29T14:23:37.537Z,2.50
2022-07-29T14:26:08.880Z,2.33
2022-07-29T14:28:42.657Z,2.10
2022-07-29T14:31:09.137Z,2.07
2022-07-29T14:33:35.674Z,2.37
2022-07-29T14:36:02.182Z,2.17
2022-07-29T14:38:28.645Z,2.10
2022-07-29T14:40:55.145Z,2.53
2022-07-29T14:43:21.646Z,2.40
2022-07-29T14:45:48.367Z,2.30
2022-07-29T14:48:14.857Z,2.50
2022-07-29T14:50:41.377Z,2.70
2022-07-29T14:53:07.840Z,2.47
2022-07-29T14:55:34.371Z,2.30
2022-07-29T14:58:09.862Z,2.00
2022-07-29T15:00:38.816Z,2.40
2022-07-29T15:03:06.256Z,2.17
2022-07-29T15:05:33.153Z,2.10
2022-07-29T15:08:00.464Z,2.10
2022-07-29T15:10:29.930Z,2.00
2022-07-29T15:12:56.958Z,2.07
2022-07-29T15:15:23.600Z,2.20
2022-07-29T15:17:50.075Z,2.20
2022-07-29T15:20:16.648Z,2.17
2022-07-29T15:22:43.957Z,2.20
2022-07-29T15:25:10.856Z,2.00
2022-07-29T15:27:37.348Z,2.30
2022-07-29T15:30:04.261Z,2.00
2022-07-29T15:32:30.816Z,2.00
2022-07-29T15:34:57.284Z,2.10
2022-07-29T15:37:23.758Z,1.97
2022-07-29T15:39:50.426Z,1.90
2022-07-29T15:42:17.827Z,2.50
2022-07-29T15:44:44.509Z,2.50
2022-07-29T15:47:10.981Z,2.23
2022-07-29T15:49:47.038Z,2.03
2022-07-29T15:52:16.494Z,2.10
2022-07-29T15:54:43.360Z,2.30
2022-07-29T15:57:09.936Z,2.07
2022-07-29T15:59:36.517Z,2.37
2022-07-29T16:02:03.548Z,2.10
2022-07-29T16:04:30.060Z,2.17
2022-07-29T16:06:57.487Z,2.17
2022-07-29T16:09:24.232Z,2.43
2022-07-29T16:11:54.114Z,2.30
2022-07-29T16:14:21.196Z,3.03
2022-07-29T16:16:48.620Z,2.57
2022-07-29T16:19:15.224Z,2.30
2022-07-29T16:21:41.986Z,2.70
2022-07-29T16:24:08.694Z,2.33
2022-07-29T16:26:35.389Z,2.60
2022-07-29T16:29:01.935Z,2.73
2022-07-29T16:31:28.514Z,2.43
2022-07-29T16:33:56.041Z,2.20
2022-07-29T16:36:23.108Z,2.10
2022-07-29T16:38:50.085Z,2.10
2022-07-29T16:41:16.638Z,2.13
2022-07-29T16:43:43.175Z,2.00
2022-07-29T16:46:12.505Z,2.17
2022-07-29T16:48:45.392Z,2.00
2022-07-29T16:51:14.307Z,2.10
2022-07-29T16:53:41.402Z,2.00
2022-07-29T16:56:08.558Z,2.10
2022-07-29T16:58:43.575Z,2.13
2022-07-29T17:01:10.445Z,2.43
2022-07-29T17:03:59.924Z,1.97
2022-07-29T17:06:28.677Z,2.33
2022-07-29T17:08:56.268Z,2.20
2022-07-29T17:11:22.737Z,2.00
2022-07-29T17:14:10.160Z,2.33
2022-07-29T17:16:36.736Z,2.20
2022-07-29T17:19:03.468Z,2.13
2022-07-29T17:21:29.950Z,2.00
2022-07-29T17:23:56.537Z,2.03
2022-07-29T17:26:23.027Z,2.00
2022-07-29T17:28:49.592Z,1.97
2022-07-29T17:31:16.371Z,1.73
2022-07-29T17:33:42.974Z,2.30
2022-07-29T17:36:24.493Z,2.20
2022-07-29T17:38:52.861Z,2.40
2022-07-29T17:41:19.701Z,2.40
2022-07-29T17:43:46.180Z,2.50
2022-07-29T17:46:12.691Z,2.40
2022-07-29T17:48:39.234Z,2.07
2022-07-29T17:51:05.769Z,2.27
2022-07-29T17:53:32.278Z,2.20
2022-07-29T17:55:58.834Z,1.90
2022-07-29T17:58:27.784Z,2.20
2022-07-29T18:00:54.300Z,2.13
2022-07-29T18:03:21.014Z,2.20
2022-07-29T18:05:47.667Z,2.07
2022-07-29T18:08:14.126Z,2.33
2022-07-29T18:10:41.357Z,2.17
2022-07-29T18:13:07.872Z,2.10
2022-07-29T18:15:34.538Z,2.27
2022-07-29T18:18:01.059Z,2.20
2022-07-29T18:20:27.654Z,2.50
2022-07-29T18:22:54.150Z,2.40
2022-07-29T18:25:20.853Z,1.97
2022-07-29T18:27:47.393Z,1.97
2022-07-29T18:30:15.204Z,2.13
2022-07-29T18:32:54.317Z,2.30
2022-07-29T18:35:28.583Z,2.00
2022-07-29T18:38:01.696Z,2.07
2022-07-29T18:40:29.714Z,1.90
2022-07-29T18:42:56.501Z,2.10
2022-07-29T18:45:23.107Z,2.30
2022-07-29T18:47:55.833Z,2.47
2022-07-29T18:50:28.903Z,2.20
2022-07-29T18:52:58.425Z,2.57
2022-07-29T18:55:25.715Z,2.03
2022-07-29T18:57:55.015Z,2.20
2022-07-29T19:00:23.881Z,2.20
2022-07-29T19:02:50.619Z,2.20
2022-07-29T19:05:17.244Z,2.43
2022-07-29T19:07:43.999Z,2.20
2022-07-29T19:10:11.263Z,2.13
2022-07-29T19:12:38.458Z,2.33
2022-07-29T19:15:05.249Z,2.43
2022-07-29T19:17:31.767Z,2.30
2022-07-29T19:19:58.665Z,1.90
2022-07-29T19:22:25.608Z,2.30
2022-07-29T19:24:53.275Z,2.37
2022-07-29T19:27:20.170Z,2.13
2022-07-29T19:29:47.295Z,2.10
2022-07-29T19:32:14.658Z,1.93
2022-07-29T19:35:10.754Z,2.10
2022-07-29T19:37:37.541Z,2.33
2022-07-29T19:40:05.256Z,2.13
2022-07-29T19:42:31.723Z,2.10
2022-07-29T19:44:58.934Z,2.60
2022-07-29T19:47:26.006Z,2.40
2022-07-29T19:49:53.128Z,2.13
2022-07-29T19:52:19.760Z,2.40
2022-07-29T19:54:46.238Z,2.13
2022-07-29T19:57:12.993Z,2.00
2022-07-29T19:59:41.088Z,2.30
2022-07-29T20:02:10.776Z,2.17
2022-07-29T20:04:37.757Z,2.13
2022-07-29T20:07:05.070Z,2.40
2022-07-29T20:09:31.596Z,2.33
2022-07-29T20:11:58.233Z,2.13
2022-07-29T20:14:24.734Z,2.27
2022-07-29T20:16:51.282Z,2.40
2022-07-29T20:19:17.777Z,2.47
2022-07-29T20:21:44.325Z,2.60
2022-07-29T20:24:11.143Z,2.80
2022-07-29T20:26:37.721Z,2.60
2022-07-29T20:29:05.361Z,2.20
2022-07-29T20:31:32.779Z,2.50
2022-07-29T20:34:01.905Z,2.43
2022-07-29T20:36:28.700Z,2.20
2022-07-29T20:38:56.016Z,2.30
2022-07-29T20:41:22.677Z,2.70
2022-07-29T20:43:49.874Z,2.57
2022-07-29T20:46:16.511Z,2.40
2022-07-29T20:48:43.170Z,2.57
2022-07-29T20:51:09.729Z,2.60
2022-07-29T20:53:38.464Z,2.00
2022-07-29T20:56:05.603Z,2.97
2022-07-29T20:58:34.037Z,2.37
2022-07-29T21:01:01.107Z,2.63
2022-07-29T21:03:27.658Z,2.67
2022-07-29T21:05:54.170Z,2.40
2022-07-29T21:08:20.635Z,2.40
2022-07-29T21:10:47.166Z,2.73
2022-07-29T21:13:14.384Z,2.60
2022-07-29T21:15:46.422Z,2.77
2022-07-29T21:18:27.006Z,2.97
2022-07-29T21:20:57.736Z,2.87
2022-07-29T21:23:25.305Z,2.80
2022-07-29T21:25:52.375Z,2.60
2022-07-29T21:28:30.423Z,2.50
2022-07-29T21:30:58.984Z,3.00
2022-07-29T21:33:29.936Z,2.90
2022-07-29T21:36:15.996Z,2.97
2022-07-29T21:38:43.008Z,2.40
2022-07-29T21:41:12.485Z,3.07
2022-07-29T21:43:41.869Z,3.00
2022-07-29T21:46:09.034Z,3.20
2022-07-29T21:48:36.076Z,2.90
2022-07-29T21:51:02.641Z,2.80
2022-07-29T21:53:29.264Z,2.90
2022-07-29T21:55:57.274Z,2.93
2022-07-29T21:58:24.701Z,3.30
2022-07-29T22:00:51.362Z,3.03
2022-07-29T22:03:17.892Z,2.93
2022-07-29T22:05:44.926Z,3.00
2022-07-29T22:08:11.584Z,3.10
2022-07-29T22:10:38.146Z,2.83
2022-07-29T22:13:04.683Z,2.90
2022-07-29T22:15:31.552Z,2.67
2022-07-29T22:17:58.062Z,2.90
2022-07-29T22:20:25.072Z,2.73
2022-07-29T22:22:51.985Z,3.00
2022-07-29T22:25:18.521Z,2.47
2022-07-29T22:27:45.228Z,2.57
2022-07-29T22:30:12.325Z,2.87
2022-07-29T22:32:38.834Z,2.90
2022-07-29T22:35:05.663Z,2.90
2022-07-29T22:37:32.236Z,3.00
2022-07-29T22:39:58.871Z,3.30
2022-07-29T22:42:25.614Z,3.17
2022-07-29T22:44:52.096Z,3.50
2022-07-29T22:47:18.795Z,3.00
2022-07-29T22:50:06.831Z,3.23
2022-07-29T22:52:33.402Z,3.17
2022-07-29T22:55:00.599Z,3.50
2022-07-29T22:57:27.097Z,3.37
2022-07-29T22:59:53.608Z,3.40
2022-07-29T23:02:20.121Z,3.20
2022-07-29T23:04:46.588Z,3.23
2022-07-29T23:07:13.079Z,3.30
2022-07-29T23:09:39.657Z,3.47
2022-07-29T23:12:06.473Z,3.40
2022-07-29T23:14:33.081Z,3.67
2022-07-29T23:17:00.027Z,3.40
2022-07-29T23:19:27.376Z,3.63
2022-07-29T23:21:53.898Z,3.50
2022-07-29T23:24:20.415Z,3.80
2022-07-29T23:26:46.917Z,3.13
2022-07-29T23:29:13.396Z,3.20
2022-07-29T23:31:42.628Z,3.67
2022-07-29T23:34:14.640Z,3.47
2022-07-29T23:36:42.327Z,3.57
2022-07-29T23:39:13.201Z,4.00
2022-07-29T23:41:39.830Z,3.33
2022-07-29T23:44:06.372Z,3.30
2022-07-29T23:46:32.971Z,3.37
2022-07-29T23:48:59.926Z,3.10
2022-07-29T23:51:26.669Z,3.63
2022-07-29T23:53:54.329Z,3.20
2022-07-29T23:56:21.278Z,3.17
2022-07-29T23:58:47.818Z,3.07
